X  Close Metar Aviation Weather Data     ENGM Oslo Airport, Gardermoen
Temperature
11°C Temperature
9°C Dewpoint
88% Humidity



Wind
6 M/S
14 MPH
23 KM/H
12 KTS



210°
SSW
Current Conditions

Mostly Cloudy Mostly Cloudy
Pressure 1007.92 (hPa) - 29.76 (inHg)
Visibility 6.2 (mile) - 10 (km)
Airport
Airport-code ENGM

Location: Oslo Airport, Gardermoen
Distance: 6 (km)

Metar:
ENGM 041450Z 21012KT 9999 BKN014 11/09 Q1008 NOSIG

Time: 04-10-2022 16:50 CEST